sensor_id;sensor_type;location;lat;lon;timestamp;pressure;altitude;pressure_sealevel;temperature;humidity
14273;BME280;7220;49.450;11.052;2023-03-15T00:03:36;97517.56;;;4.32;100.00
14273;BME280;7220;49.450;11.052;2023-03-15T00:07:36;97527.06;;;4.14;100.00
14273;BME280;7220;49.450;11.052;2023-03-15T00:11:37;97545.22;;;4.20;100.00
14273;BME280;7220;49.450;11.052;2023-03-15T00:15:45;97545.84;;;4.27;100.00
14273;BME280;7220;49.450;11.052;2023-03-15T00:19:45;97551.88;;;4.29;100.00
14273;BME280;7220;49.450;11.052;2023-03-15T00:23:47;97561.66;;;4.25;100.00
14273;BME280;7220;49.450;11.052;2023-03-15T00:27:48;97562.13;;;4.37;100.00
14273;BME280;7220;49.450;11.052;2023-03-15T00:31:48;97572.84;;;4.54;100.00
14273;BME280;7220;49.450;11.052;2023-03-15T00:35:50;97584.44;;;4.26;100.00
14273;BME280;7220;49.450;11.052;2023-03-15T00:39:52;97601.81;;;4.31;100.00
14273;BME280;7220;49.450;11.052;2023-03-15T00:43:54;97601.13;;;4.25;100.00
14273;BME280;7220;49.450;11.052;2023-03-15T00:47:55;97598.84;;;4.40;100.00
14273;BME280;7220;49.450;11.052;2023-03-15T00:51:55;97603.31;;;4.38;100.00
14273;BME280;7220;49.450;11.052;2023-03-15T00:55:55;97614.84;;;4.34;100.00
14273;BME280;7220;49.450;11.052;2023-03-15T00:59:56;97622.53;;;4.16;100.00
14273;BME280;7220;49.450;11.052;2023-03-15T01:03:56;97642.13;;;4.31;100.00
14273;BME280;7220;49.450;11.052;2023-03-15T01:07:57;97646.00;;;4.21;100.00
14273;BME280;7220;49.450;11.052;2023-03-15T01:11:57;97651.50;;;4.15;100.00
14273;BME280;7220;49.450;11.052;2023-03-15T01:15:58;97654.63;;;4.01;100.00
14273;BME280;7220;49.450;11.052;2023-03-15T01:19:58;97676.72;;;3.70;100.00
14273;BME280;7220;49.450;11.052;2023-03-15T01:23:59;97674.25;;;3.65;100.00
14273;BME280;7220;49.450;11.052;2023-03-15T01:27:59;97689.09;;;3.68;100.00
14273;BME280;7220;49.450;11.052;2023-03-15T01:32:00;97682.38;;;3.32;100.00
14273;BME280;7220;49.450;11.052;2023-03-15T01:36:05;97690.19;;;3.34;100.00
14273;BME280;7220;49.450;11.052;2023-03-15T01:40:08;97677.47;;;3.48;100.00
14273;BME280;7220;49.450;11.052;2023-03-15T01:44:13;97684.00;;;3.61;100.00
14273;BME280;7220;49.450;11.052;2023-03-15T01:48:14;97706.16;;;3.27;100.00
14273;BME280;7220;49.450;11.052;2023-03-15T01:52:22;97695.69;;;3.26;100.00
14273;BME280;7220;49.450;11.052;2023-03-15T01:56:24;97711.22;;;3.34;100.00
14273;BME280;7220;49.450;11.052;2023-03-15T02:00:26;97709.25;;;3.40;100.00
14273;BME280;7220;49.450;11.052;2023-03-15T02:04:31;97708.69;;;3.57;100.00
14273;BME280;7220;49.450;11.052;2023-03-15T02:08:37;97717.19;;;3.66;100.00
14273;BME280;7220;49.450;11.052;2023-03-15T02:12:41;97717.78;;;3.47;100.00
14273;BME280;7220;49.450;11.052;2023-03-15T02:16:44;97732.53;;;3.51;100.00
14273;BME280;7220;49.450;11.052;2023-03-15T02:21:11;97737.47;;;3.34;100.00
14273;BME280;7220;49.450;11.052;2023-03-15T02:29:14;97740.50;;;3.48;100.00
14273;BME280;7220;49.450;11.052;2023-03-15T02:33:25;97761.81;;;3.39;100.00
14273;BME280;7220;49.450;11.052;2023-03-15T02:37:26;97768.44;;;3.24;100.00
14273;BME280;7220;49.450;11.052;2023-03-15T02:41:33;97767.94;;;3.39;100.00
14273;BME280;7220;49.450;11.052;2023-03-15T02:45:34;97775.78;;;3.41;100.00
14273;BME280;7220;49.450;11.052;2023-03-15T02:49:41;97780.88;;;3.45;100.00
14273;BME280;7220;49.450;11.052;2023-03-15T02:53:42;97786.09;;;3.47;100.00
14273;BME280;7220;49.450;11.052;2023-03-15T02:57:43;97797.31;;;3.52;100.00
14273;BME280;7220;49.450;11.052;2023-03-15T03:01:43;97810.53;;;3.21;100.00
14273;BME280;7220;49.450;11.052;2023-03-15T03:05:44;97809.88;;;3.42;100.00
14273;BME280;7220;49.450;11.052;2023-03-15T03:09:45;97817.09;;;3.36;100.00
14273;BME280;7220;49.450;11.052;2023-03-15T03:13:45;97833.94;;;3.28;100.00
14273;BME280;7220;49.450;11.052;2023-03-15T03:17:46;97847.63;;;2.78;100.00
14273;BME280;7220;49.450;11.052;2023-03-15T03:21:46;97854.31;;;2.57;100.00
14273;BME280;7220;49.450;11.052;2023-03-15T03:25:46;97871.78;;;2.58;100.00
14273;BME280;7220;49.450;11.052;2023-03-15T03:29:47;97876.59;;;2.75;100.00
14273;BME280;7220;49.450;11.052;2023-03-15T03:33:48;97877.25;;;2.50;100.00
14273;BME280;7220;49.450;11.052;2023-03-15T03:37:48;97889.91;;;2.67;100.00
14273;BME280;7220;49.450;11.052;2023-03-15T03:41:48;97901.94;;;2.76;100.00
14273;BME280;7220;49.450;11.052;2023-03-15T03:45:49;97910.41;;;2.86;100.00
14273;BME280;7220;49.450;11.052;2023-03-15T03:49:49;97919.25;;;2.82;100.00
14273;BME280;7220;49.450;11.052;2023-03-15T03:53:49;97926.81;;;2.93;100.00
14273;BME280;7220;49.450;11.052;2023-03-15T03:57:50;97924.13;;;2.63;100.00
14273;BME280;7220;49.450;11.052;2023-03-15T04:01:51;97930.25;;;2.63;100.00
14273;BME280;7220;49.450;11.052;2023-03-15T04:05:56;97937.47;;;2.55;100.00
14273;BME280;7220;49.450;11.052;2023-03-15T04:09:57;97944.09;;;2.68;100.00
14273;BME280;7220;49.450;11.052;2023-03-15T04:13:57;97940.81;;;2.60;100.00
14273;BME280;7220;49.450;11.052;2023-03-15T04:17:58;97946.28;;;2.51;100.00
14273;BME280;7220;49.450;11.052;2023-03-15T04:21:58;97956.88;;;2.48;100.00
14273;BME280;7220;49.450;11.052;2023-03-15T04:25:59;97960.34;;;2.48;100.00
14273;BME280;7220;49.450;11.052;2023-03-15T04:29:59;97968.41;;;2.41;100.00
14273;BME280;7220;49.450;11.052;2023-03-15T04:34:04;97989.38;;;2.42;100.00
14273;BME280;7220;49.450;11.052;2023-03-15T04:38:05;97995.47;;;2.43;100.00
14273;BME280;7220;49.450;11.052;2023-03-15T04:42:05;97998.53;;;2.24;100.00
14273;BME280;7220;49.450;11.052;2023-03-15T04:46:06;98004.22;;;2.42;100.00
14273;BME280;7220;49.450;11.052;2023-03-15T04:50:08;98018.78;;;2.53;100.00
14273;BME280;7220;49.450;11.052;2023-03-15T04:54:08;98021.03;;;2.33;100.00
14273;BME280;7220;49.450;11.052;2023-03-15T04:58:09;98028.66;;;2.44;100.00
14273;BME280;7220;49.450;11.052;2023-03-15T05:02:09;98030.16;;;2.16;100.00
14273;BME280;7220;49.450;11.052;2023-03-15T05:06:09;98020.38;;;2.25;100.00
14273;BME280;7220;49.450;11.052;2023-03-15T05:10:10;98028.97;;;2.30;100.00
14273;BME280;7220;49.450;11.052;2023-03-15T05:14:11;98035.09;;;2.29;100.00
14273;BME280;7220;49.450;11.052;2023-03-15T05:18:11;98043.91;;;2.28;100.00
14273;BME280;7220;49.450;11.052;2023-03-15T05:22:12;98048.66;;;2.09;100.00
14273;BME280;7220;49.450;11.052;2023-03-15T05:26:13;98045.16;;;2.10;100.00
14273;BME280;7220;49.450;11.052;2023-03-15T05:30:13;98060.69;;;2.19;100.00
14273;BME280;7220;49.450;11.052;2023-03-15T05:34:15;98062.19;;;1.90;100.00
14273;BME280;7220;49.450;11.052;2023-03-15T05:38:15;98080.44;;;1.93;100.00
14273;BME280;7220;49.450;11.052;2023-03-15T05:42:15;98091.81;;;1.94;100.00
14273;BME280;7220;49.450;11.052;2023-03-15T05:46:21;98089.00;;;2.01;100.00
14273;BME280;7220;49.450;11.052;2023-03-15T05:50:21;98104.16;;;1.87;100.00
14273;BME280;7220;49.450;11.052;2023-03-15T05:54:22;98108.84;;;2.15;100.00
14273;BME280;7220;49.450;11.052;2023-03-15T05:58:22;98108.34;;;2.38;100.00
14273;BME280;7220;49.450;11.052;2023-03-15T06:02:23;98120.50;;;2.42;100.00
14273;BME280;7220;49.450;11.052;2023-03-15T06:06:23;98130.59;;;2.20;100.00
14273;BME280;7220;49.450;11.052;2023-03-15T06:10:23;98127.25;;;2.12;100.00
14273;BME280;7220;49.450;11.052;2023-03-15T06:14:25;98136.81;;;2.14;100.00
14273;BME280;7220;49.450;11.052;2023-03-15T06:18:26;98138.50;;;1.75;100.00
14273;BME280;7220;49.450;11.052;2023-03-15T06:22:26;98125.34;;;2.20;100.00
14273;BME280;7220;49.450;11.052;2023-03-15T06:26:26;98126.78;;;2.33;100.00
14273;BME280;7220;49.450;11.052;2023-03-15T06:30:27;98145.94;;;2.39;100.00
14273;BME280;7220;49.450;11.052;2023-03-15T06:34:27;98140.09;;;2.26;100.00
14273;BME280;7220;49.450;11.052;2023-03-15T06:38:28;98151.91;;;2.01;100.00
14273;BME280;7220;49.450;11.052;2023-03-15T06:42:30;98144.06;;;2.03;100.00
14273;BME280;7220;49.450;11.052;2023-03-15T06:46:31;98154.81;;;1.89;100.00
14273;BME280;7220;49.450;11.052;2023-03-15T06:50:32;98142.63;;;1.86;100.00
14273;BME280;7220;49.450;11.052;2023-03-15T06:54:33;98163.34;;;1.99;100.00
14273;BME280;7220;49.450;11.052;2023-03-15T06:58:33;98140.94;;;2.26;100.00
14273;BME280;7220;49.450;11.052;2023-03-15T07:02:33;98145.88;;;1.99;100.00
14273;BME280;7220;49.450;11.052;2023-03-15T07:06:36;98145.78;;;2.04;100.00
14273;BME280;7220;49.450;11.052;2023-03-15T07:10:36;98150.66;;;2.21;100.00
14273;BME280;7220;49.450;11.052;2023-03-15T07:14:37;98161.69;;;2.39;100.00
14273;BME280;7220;49.450;11.052;2023-03-15T07:18:37;98156.47;;;2.35;100.00
14273;BME280;7220;49.450;11.052;2023-03-15T07:22:37;98162.69;;;2.31;100.00
14273;BME280;7220;49.450;11.052;2023-03-15T07:26:38;98150.50;;;2.70;100.00
14273;BME280;7220;49.450;11.052;2023-03-15T07:30:38;98149.72;;;2.66;100.00
14273;BME280;7220;49.450;11.052;2023-03-15T07:34:39;98165.94;;;2.82;100.00
14273;BME280;7220;49.450;11.052;2023-03-15T07:38:39;98169.47;;;2.81;100.00
14273;BME280;7220;49.450;11.052;2023-03-15T07:42:40;98173.28;;;2.67;99.80
14273;BME280;7220;49.450;11.052;2023-03-15T07:46:41;98175.75;;;2.75;99.22
14273;BME280;7220;49.450;11.052;2023-03-15T07:50:41;98190.56;;;2.78;97.79
14273;BME280;7220;49.450;11.052;2023-03-15T07:54:41;98187.38;;;3.03;98.03
14273;BME280;7220;49.450;11.052;2023-03-15T07:58:42;98188.53;;;2.89;98.55
14273;BME280;7220;49.450;11.052;2023-03-15T08:02:42;98180.59;;;2.92;98.55
14273;BME280;7220;49.450;11.052;2023-03-15T08:06:43;98198.63;;;3.08;97.91
14273;BME280;7220;49.450;11.052;2023-03-15T08:10:43;98194.69;;;3.26;96.36
14273;BME280;7220;49.450;11.052;2023-03-15T08:14:44;98186.06;;;3.21;94.65
14273;BME280;7220;49.450;11.052;2023-03-15T08:18:44;98190.09;;;3.34;93.88
14273;BME280;7220;49.450;11.052;2023-03-15T08:22:46;98192.78;;;3.33;93.77
14273;BME280;7220;49.450;11.052;2023-03-15T08:26:47;98213.94;;;3.26;93.04
14273;BME280;7220;49.450;11.052;2023-03-15T08:30:48;98207.13;;;3.19;91.60
14273;BME280;7220;49.450;11.052;2023-03-15T08:34:48;98195.84;;;3.50;90.95
14273;BME280;7220;49.450;11.052;2023-03-15T08:38:48;98201.81;;;3.57;89.30
14273;BME280;7220;49.450;11.052;2023-03-15T08:42:49;98205.75;;;3.73;88.88
14273;BME280;7220;49.450;11.052;2023-03-15T08:46:49;98207.06;;;3.57;87.49
14273;BME280;7220;49.450;11.052;2023-03-15T08:50:49;98200.84;;;3.61;87.59
14273;BME280;7220;49.450;11.052;2023-03-15T08:54:50;98208.38;;;3.73;85.69
14273;BME280;7220;49.450;11.052;2023-03-15T08:58:50;98211.00;;;3.75;84.74
14273;BME280;7220;49.450;11.052;2023-03-15T09:02:50;98216.94;;;4.16;85.56
14273;BME280;7220;49.450;11.052;2023-03-15T09:06:51;98214.34;;;4.46;85.96
14273;BME280;7220;49.450;11.052;2023-03-15T09:10:55;98220.69;;;4.69;83.16
14273;BME280;7220;49.450;11.052;2023-03-15T09:14:56;98219.88;;;4.67;81.79
14273;BME280;7220;49.450;11.052;2023-03-15T09:18:56;98226.53;;;4.79;82.00
14273;BME280;7220;49.450;11.052;2023-03-15T09:22:57;98229.75;;;4.58;80.23
14273;BME280;7220;49.450;11.052;2023-03-15T09:26:57;98230.75;;;4.84;81.05
14273;BME280;7220;49.450;11.052;2023-03-15T09:30:58;98235.47;;;5.03;79.37
14273;BME280;7220;49.450;11.052;2023-03-15T09:34:58;98227.16;;;5.44;79.23
14273;BME280;7220;49.450;11.052;2023-03-15T09:38:59;98238.31;;;5.52;79.06
14273;BME280;7220;49.450;11.052;2023-03-15T09:55:34;98235.38;;;4.76;76.53
14273;BME280;7220;49.450;11.052;2023-03-15T09:59:40;98238.97;;;4.73;76.90
14273;BME280;7220;49.450;11.052;2023-03-15T10:03:47;98269.28;;;4.88;77.31
14273;BME280;7220;49.450;11.052;2023-03-15T10:07:48;98257.00;;;4.87;77.95
14273;BME280;7220;49.450;11.052;2023-03-15T10:12:01;98270.78;;;4.66;79.86
14273;BME280;7220;49.450;11.052;2023-03-15T10:20:28;98262.81;;;4.69;80.63
14273;BME280;7220;49.450;11.052;2023-03-15T10:28:45;98252.63;;;5.16;79.00
14273;BME280;7220;49.450;11.052;2023-03-15T10:32:57;98264.88;;;5.46;77.78
14273;BME280;7220;49.450;11.052;2023-03-15T10:36:59;98254.56;;;5.38;79.01
14273;BME280;7220;49.450;11.052;2023-03-15T10:40:59;98250.03;;;5.43;77.65
14273;BME280;7220;49.450;11.052;2023-03-15T10:45:21;98261.53;;;5.12;77.78
14273;BME280;7220;49.450;11.052;2023-03-15T10:49:32;98259.53;;;5.20;77.23
14273;BME280;7220;49.450;11.052;2023-03-15T10:53:33;98255.19;;;4.89;78.39
14273;BME280;7220;49.450;11.052;2023-03-15T10:57:37;98259.28;;;5.00;78.30
14273;BME280;7220;49.450;11.052;2023-03-15T11:01:38;98246.38;;;4.61;79.04
14273;BME280;7220;49.450;11.052;2023-03-15T11:05:42;98269.53;;;4.79;78.73
14273;BME280;7220;49.450;11.052;2023-03-15T11:09:53;98267.22;;;4.68;80.25
14273;BME280;7220;49.450;11.052;2023-03-15T11:13:58;98272.91;;;4.53;81.22
14273;BME280;7220;49.450;11.052;2023-03-15T11:17:59;98265.81;;;4.55;82.16
14273;BME280;7220;49.450;11.052;2023-03-15T11:22:00;98275.50;;;4.54;83.61
14273;BME280;7220;49.450;11.052;2023-03-15T11:26:01;98266.16;;;4.74;83.39
14273;BME280;7220;49.450;11.052;2023-03-15T11:30:02;98254.78;;;4.42;83.68
14273;BME280;7220;49.450;11.052;2023-03-15T11:38:40;98253.50;;;4.57;83.89
14273;BME280;7220;49.450;11.052;2023-03-15T11:42:48;98259.91;;;4.48;86.37
14273;BME280;7220;49.450;11.052;2023-03-15T11:46:56;98264.28;;;4.48;87.93
14273;BME280;7220;49.450;11.052;2023-03-15T11:51:00;98261.31;;;4.60;87.91
14273;BME280;7220;49.450;11.052;2023-03-15T11:55:01;98267.63;;;4.53;89.43
14273;BME280;7220;49.450;11.052;2023-03-15T11:59:08;98264.03;;;4.57;91.28
14273;BME280;7220;49.450;11.052;2023-03-15T12:03:43;98277.81;;;4.65;93.99
14273;BME280;7220;49.450;11.052;2023-03-15T12:08:20;98275.56;;;4.51;96.25
14273;BME280;7220;49.450;11.052;2023-03-15T12:16:26;98268.25;;;4.63;97.50
14273;BME280;7220;49.450;11.052;2023-03-15T12:20:41;98275.28;;;4.62;100.00
14273;BME280;7220;49.450;11.052;2023-03-15T12:24:44;98275.25;;;4.64;98.55
14273;BME280;7220;49.450;11.052;2023-03-15T12:33:00;98281.44;;;4.30;98.09
14273;BME280;7220;49.450;11.052;2023-03-15T12:37:06;98273.13;;;4.45;97.33
14273;BME280;7220;49.450;11.052;2023-03-15T12:41:09;98269.00;;;4.35;98.01
14273;BME280;7220;49.450;11.052;2023-03-15T12:45:34;98282.00;;;4.41;99.26
14273;BME280;7220;49.450;11.052;2023-03-15T12:49:39;98281.69;;;4.83;97.40
14273;BME280;7220;49.450;11.052;2023-03-15T12:53:44;98279.31;;;4.74;96.83
14273;BME280;7220;49.450;11.052;2023-03-15T12:57:51;98289.00;;;5.03;95.20
14273;BME280;7220;49.450;11.052;2023-03-15T13:01:54;98287.16;;;4.77;94.60
14273;BME280;7220;49.450;11.052;2023-03-15T13:06:04;98284.81;;;4.35;95.84
14273;BME280;7220;49.450;11.052;2023-03-15T13:10:23;98286.94;;;4.53;94.66
14273;BME280;7220;49.450;11.052;2023-03-15T13:14:35;98289.75;;;4.47;94.34
14273;BME280;7220;49.450;11.052;2023-03-15T13:18:49;98285.78;;;4.64;92.65
14273;BME280;7220;49.450;11.052;2023-03-15T13:27:44;98292.34;;;4.79;89.40
14273;BME280;7220;49.450;11.052;2023-03-15T13:36:16;98288.88;;;4.78;89.16
14273;BME280;7220;49.450;11.052;2023-03-15T13:40:16;98290.81;;;5.01;87.63
14273;BME280;7220;49.450;11.052;2023-03-15T13:44:19;98291.88;;;4.96;87.57
14273;BME280;7220;49.450;11.052;2023-03-15T13:48:20;98289.88;;;5.04;87.13
14273;BME280;7220;49.450;11.052;2023-03-15T13:52:21;98303.66;;;4.82;88.68
14273;BME280;7220;49.450;11.052;2023-03-15T13:56:31;98300.69;;;5.25;87.35
14273;BME280;7220;49.450;11.052;2023-03-15T14:00:34;98294.69;;;5.19;86.62
14273;BME280;7220;49.450;11.052;2023-03-15T14:04:36;98290.03;;;4.99;87.13
14273;BME280;7220;49.450;11.052;2023-03-15T14:08:38;98293.78;;;4.90;87.42
14273;BME280;7220;49.450;11.052;2023-03-15T14:12:39;98288.31;;;4.97;86.80
14273;BME280;7220;49.450;11.052;2023-03-15T14:16:42;98297.38;;;4.88;87.44
14273;BME280;7220;49.450;11.052;2023-03-15T14:20:45;98299.59;;;5.02;86.16
14273;BME280;7220;49.450;11.052;2023-03-15T14:24:49;98289.25;;;4.96;86.13
14273;BME280;7220;49.450;11.052;2023-03-15T14:28:55;98302.31;;;4.99;85.73
14273;BME280;7220;49.450;11.052;2023-03-15T14:32:57;98299.53;;;5.03;84.56
14273;BME280;7220;49.450;11.052;2023-03-15T14:37:00;98301.78;;;4.87;83.80
14273;BME280;7220;49.450;11.052;2023-03-15T14:41:17;98303.13;;;5.01;84.08
14273;BME280;7220;49.450;11.052;2023-03-15T14:45:18;98294.13;;;4.78;83.74
14273;BME280;7220;49.450;11.052;2023-03-15T14:49:24;98312.84;;;4.99;83.74
14273;BME280;7220;49.450;11.052;2023-03-15T14:53:26;98313.41;;;4.79;84.77
14273;BME280;7220;49.450;11.052;2023-03-15T14:57:30;98304.16;;;4.65;85.21
14273;BME280;7220;49.450;11.052;2023-03-15T15:01:30;98306.28;;;4.82;85.03
14273;BME280;7220;49.450;11.052;2023-03-15T15:05:34;98301.53;;;4.95;84.45
14273;BME280;7220;49.450;11.052;2023-03-15T15:09:34;98304.84;;;5.32;83.91
14273;BME280;7220;49.450;11.052;2023-03-15T15:13:37;98306.09;;;5.48;82.65
14273;BME280;7220;49.450;11.052;2023-03-15T15:17:37;98300.75;;;5.51;82.71
14273;BME280;7220;49.450;11.052;2023-03-15T15:21:38;98308.72;;;5.48;82.34
14273;BME280;7220;49.450;11.052;2023-03-15T15:25:40;98307.53;;;5.30;83.31
14273;BME280;7220;49.450;11.052;2023-03-15T15:29:40;98310.03;;;5.63;82.92
14273;BME280;7220;49.450;11.052;2023-03-15T15:33:41;98301.34;;;6.89;78.61
14273;BME280;7220;49.450;11.052;2023-03-15T15:37:46;98282.09;;;7.55;75.96
14273;BME280;7220;49.450;11.052;2023-03-15T15:41:48;98300.03;;;7.25;75.52
14273;BME280;7220;49.450;11.052;2023-03-15T15:45:48;98310.59;;;7.69;73.92
14273;BME280;7220;49.450;11.052;2023-03-15T15:49:49;98312.44;;;7.89;72.95
14273;BME280;7220;49.450;11.052;2023-03-15T15:53:49;98299.56;;;7.82;71.97
14273;BME280;7220;49.450;11.052;2023-03-15T15:57:50;98305.06;;;7.98;70.12
14273;BME280;7220;49.450;11.052;2023-03-15T16:01:54;98294.97;;;7.65;70.74
14273;BME280;7220;49.450;11.052;2023-03-15T16:05:54;98307.03;;;7.70;70.37
14273;BME280;7220;49.450;11.052;2023-03-15T16:09:56;98323.00;;;7.23;71.13
14273;BME280;7220;49.450;11.052;2023-03-15T16:13:58;98327.25;;;6.79;73.70
14273;BME280;7220;49.450;11.052;2023-03-15T16:17:58;98325.09;;;6.66;74.04
14273;BME280;7220;49.450;11.052;2023-03-15T16:21:59;98325.47;;;6.80;73.89
14273;BME280;7220;49.450;11.052;2023-03-15T16:25:59;98332.63;;;6.26;75.17
14273;BME280;7220;49.450;11.052;2023-03-15T16:30:00;98345.94;;;6.23;76.16
14273;BME280;7220;49.450;11.052;2023-03-15T16:34:08;98345.78;;;6.00;77.46
14273;BME280;7220;49.450;11.052;2023-03-15T16:38:14;98349.03;;;5.80;77.29
14273;BME280;7220;49.450;11.052;2023-03-15T16:42:16;98376.09;;;5.87;77.02
14273;BME280;7220;49.450;11.052;2023-03-15T16:46:16;98381.94;;;5.68;77.68
14273;BME280;7220;49.450;11.052;2023-03-15T16:50:17;98406.50;;;5.69;77.41
14273;BME280;7220;49.450;11.052;2023-03-15T16:54:18;98422.06;;;5.48;79.43
14273;BME280;7220;49.450;11.052;2023-03-15T16:58:20;98421.31;;;5.13;80.83
14273;BME280;7220;49.450;11.052;2023-03-15T17:02:22;98422.00;;;4.88;82.43
14273;BME280;7220;49.450;11.052;2023-03-15T17:06:23;98419.19;;;4.62;84.42
14273;BME280;7220;49.450;11.052;2023-03-15T17:10:26;98424.28;;;4.68;85.16
14273;BME280;7220;49.450;11.052;2023-03-15T17:14:29;98435.72;;;4.67;85.35
14273;BME280;7220;49.450;11.052;2023-03-15T17:18:32;98443.78;;;4.61;86.75
14273;BME280;7220;49.450;11.052;2023-03-15T17:22:33;98472.00;;;4.55;87.39
14273;BME280;7220;49.450;11.052;2023-03-15T17:26:34;98495.53;;;4.24;90.76
14273;BME280;7220;49.450;11.052;2023-03-15T17:30:35;98490.78;;;4.01;92.57
14273;BME280;7220;49.450;11.052;2023-03-15T17:34:36;98478.50;;;3.62;95.67
14273;BME280;7220;49.450;11.052;2023-03-15T17:38:36;98474.44;;;3.47;96.19
14273;BME280;7220;49.450;11.052;2023-03-15T17:42:41;98485.25;;;3.31;98.24
14273;BME280;7220;49.450;11.052;2023-03-15T17:46:41;98479.94;;;3.35;97.93
14273;BME280;7220;49.450;11.052;2023-03-15T17:50:43;98452.75;;;3.37;97.62
14273;BME280;7220;49.450;11.052;2023-03-15T17:54:45;98461.47;;;3.38;98.12
14273;BME280;7220;49.450;11.052;2023-03-15T17:58:45;98460.75;;;3.29;98.89
14273;BME280;7220;49.450;11.052;2023-03-15T18:02:47;98467.78;;;3.29;98.32
14273;BME280;7220;49.450;11.052;2023-03-15T18:06:48;98488.09;;;3.21;99.75
14273;BME280;7220;49.450;11.052;2023-03-15T18:10:49;98494.16;;;3.24;99.39
14273;BME280;7220;49.450;11.052;2023-03-15T18:14:49;98512.56;;;3.23;100.00
14273;BME280;7220;49.450;11.052;2023-03-15T18:18:50;98514.31;;;3.24;100.00
14273;BME280;7220;49.450;11.052;2023-03-15T18:22:50;98515.56;;;3.01;100.00
14273;BME280;7220;49.450;11.052;2023-03-15T18:26:51;98536.03;;;2.82;100.00
14273;BME280;7220;49.450;11.052;2023-03-15T18:30:51;98528.78;;;2.98;100.00
14273;BME280;7220;49.450;11.052;2023-03-15T18:34:53;98538.59;;;2.87;100.00
14273;BME280;7220;49.450;11.052;2023-03-15T18:38:54;98529.84;;;2.86;100.00
14273;BME280;7220;49.450;11.052;2023-03-15T18:42:55;98538.50;;;2.91;100.00
14273;BME280;7220;49.450;11.052;2023-03-15T18:46:56;98543.47;;;3.07;100.00
14273;BME280;7220;49.450;11.052;2023-03-15T18:50:56;98528.31;;;2.73;100.00
14273;BME280;7220;49.450;11.052;2023-03-15T18:54:56;98547.22;;;2.93;100.00
14273;BME280;7220;49.450;11.052;2023-03-15T18:58:57;98541.28;;;2.83;100.00
14273;BME280;7220;49.450;11.052;2023-03-15T19:02:59;98548.28;;;2.83;100.00
14273;BME280;7220;49.450;11.052;2023-03-15T19:07:00;98548.59;;;2.63;100.00
14273;BME280;7220;49.450;11.052;2023-03-15T19:11:01;98565.00;;;2.76;100.00
14273;BME280;7220;49.450;11.052;2023-03-15T19:15:02;98535.16;;;2.83;100.00
14273;BME280;7220;49.450;11.052;2023-03-15T19:19:04;98542.34;;;2.72;100.00
14273;BME280;7220;49.450;11.052;2023-03-15T19:23:05;98538.25;;;2.53;100.00
14273;BME280;7220;49.450;11.052;2023-03-15T19:27:05;98531.03;;;2.66;100.00
14273;BME280;7220;49.450;11.052;2023-03-15T19:31:05;98544.28;;;2.60;100.00
14273;BME280;7220;49.450;11.052;2023-03-15T19:35:06;98546.78;;;2.66;100.00
14273;BME280;7220;49.450;11.052;2023-03-15T19:39:07;98535.47;;;2.64;100.00
14273;BME280;7220;49.450;11.052;2023-03-15T19:43:09;98563.50;;;2.62;100.00
14273;BME280;7220;49.450;11.052;2023-03-15T19:47:09;98558.47;;;2.47;100.00
14273;BME280;7220;49.450;11.052;2023-03-15T19:51:10;98557.59;;;2.46;100.00
14273;BME280;7220;49.450;11.052;2023-03-15T19:55:15;98571.00;;;2.26;100.00
14273;BME280;7220;49.450;11.052;2023-03-15T19:59:16;98563.19;;;2.23;100.00
14273;BME280;7220;49.450;11.052;2023-03-15T20:03:16;98577.75;;;2.43;100.00
14273;BME280;7220;49.450;11.052;2023-03-15T20:07:17;98575.88;;;2.51;100.00
14273;BME280;7220;49.450;11.052;2023-03-15T20:11:17;98588.25;;;2.43;100.00
14273;BME280;7220;49.450;11.052;2023-03-15T20:15:24;98593.91;;;2.13;100.00
14273;BME280;7220;49.450;11.052;2023-03-15T20:19:25;98598.25;;;2.16;100.00
14273;BME280;7220;49.450;11.052;2023-03-15T20:23:25;98598.00;;;2.36;100.00
14273;BME280;7220;49.450;11.052;2023-03-15T20:27:27;98602.28;;;2.40;100.00
14273;BME280;7220;49.450;11.052;2023-03-15T20:31:27;98622.78;;;2.09;100.00
14273;BME280;7220;49.450;11.052;2023-03-15T20:35:28;98623.00;;;1.95;100.00
14273;BME280;7220;49.450;11.052;2023-03-15T20:39:28;98630.78;;;2.01;100.00
14273;BME280;7220;49.450;11.052;2023-03-15T20:43:29;98625.66;;;1.90;100.00
14273;BME280;7220;49.450;11.052;2023-03-15T20:47:30;98623.00;;;1.92;100.00
14273;BME280;7220;49.450;11.052;2023-03-15T20:51:30;98632.75;;;1.79;100.00
14273;BME280;7220;49.450;11.052;2023-03-15T20:55:30;98645.91;;;1.77;100.00
14273;BME280;7220;49.450;11.052;2023-03-15T20:59:31;98659.72;;;1.92;100.00
14273;BME280;7220;49.450;11.052;2023-03-15T21:03:32;98653.94;;;1.60;100.00
14273;BME280;7220;49.450;11.052;2023-03-15T21:07:33;98649.53;;;1.62;100.00
14273;BME280;7220;49.450;11.052;2023-03-15T21:11:33;98652.81;;;1.84;100.00
14273;BME280;7220;49.450;11.052;2023-03-15T21:15:34;98645.81;;;1.83;100.00
14273;BME280;7220;49.450;11.052;2023-03-15T21:19:35;98652.84;;;1.80;100.00
14273;BME280;7220;49.450;11.052;2023-03-15T21:23:35;98657.41;;;1.61;100.00
14273;BME280;7220;49.450;11.052;2023-03-15T21:27:36;98653.97;;;1.54;100.00
14273;BME280;7220;49.450;11.052;2023-03-15T21:31:36;98658.31;;;1.56;100.00
14273;BME280;7220;49.450;11.052;2023-03-15T21:35:37;98657.41;;;1.62;100.00
14273;BME280;7220;49.450;11.052;2023-03-15T21:39:37;98653.22;;;1.44;100.00
14273;BME280;7220;49.450;11.052;2023-03-15T21:43:37;98657.44;;;1.59;100.00
14273;BME280;7220;49.450;11.052;2023-03-15T21:47:38;98648.94;;;1.35;100.00
14273;BME280;7220;49.450;11.052;2023-03-15T21:51:38;98658.47;;;1.41;100.00
14273;BME280;7220;49.450;11.052;2023-03-15T21:55:38;98666.41;;;1.33;100.00
14273;BME280;7220;49.450;11.052;2023-03-15T21:59:38;98662.84;;;1.40;100.00
14273;BME280;7220;49.450;11.052;2023-03-15T22:03:39;98664.53;;;1.48;100.00
14273;BME280;7220;49.450;11.052;2023-03-15T22:07:41;98673.31;;;1.40;100.00
14273;BME280;7220;49.450;11.052;2023-03-15T22:11:42;98675.91;;;1.42;100.00
14273;BME280;7220;49.450;11.052;2023-03-15T22:15:42;98667.88;;;1.62;100.00
14273;BME280;7220;49.450;11.052;2023-03-15T22:19:42;98666.19;;;1.56;100.00